Time;durP1;ratioP1;P1;durP2;ratioP2;P2;SDS_P1;SDS_P2;PMS_P1;PMS_P2;Temp;Humidity;BMP_temperature;BMP_pressure;BME280_temperature;BME280_humidity;BME280_pressure;Samples;Min_cycle;Max_cycle;Signal;HPM_P1;HPM_P2
2021/04/26 00:00:08;;;;;;;12.82;5.13;;;6.50;73.20;;;6.59;59.73;101290.28;4994034;28;20046;-78
2021/04/26 00:02:39;;;;;;;10.65;5.15;;;6.50;73.30;;;6.58;59.68;101297.50;4993858;28;20050;-78
2021/04/26 00:05:09;;;;;;;9.25;4.72;;;6.40;73.40;;;6.59;59.98;101290.28;4993319;28;20569;-78
2021/04/26 00:07:36;;;;;;;11.20;4.72;;;6.40;73.50;;;6.55;59.75;101284.28;4993959;28;20050;-78
2021/04/26 00:10:04;;;;;;;12.32;5.40;;;6.40;73.60;;;6.55;59.59;101289.69;4992274;28;20082;-78
2021/04/26 00:12:32;;;;;;;12.43;4.97;;;6.40;73.80;;;6.52;60.00;101283.69;4991956;28;20086;-78
2021/04/26 00:14:59;;;;;;;16.08;5.30;;;6.50;74.00;;;6.50;60.27;101289.25;4992100;28;20055;-78
2021/04/26 00:17:26;;;;;;;15.68;5.80;;;6.30;73.90;;;6.45;59.90;101289.69;4993824;28;20137;-78
2021/04/26 00:19:53;;;;;;;10.27;5.10;;;6.30;74.10;;;6.41;59.89;101281.97;4993100;28;20489;-78
2021/04/26 00:22:19;;;;;;;12.13;4.93;;;6.20;73.90;;;6.35;60.43;101277.13;4993193;28;20069;-78
2021/04/26 00:24:48;;;;;;;11.27;5.15;;;6.20;74.30;;;6.35;60.51;101282.53;4990826;28;20085;-78
2021/04/26 00:27:15;;;;;;;9.80;5.00;;;6.20;74.10;;;6.31;59.89;101275.69;4993045;28;20046;-78
2021/04/26 00:29:43;;;;;;;12.18;5.10;;;6.20;74.10;;;6.31;60.51;101275.69;4993161;28;20521;-78
2021/04/26 00:32:09;;;;;;;12.57;5.45;;;6.10;74.30;;;6.29;60.20;101272.28;4992913;28;20515;-78
2021/04/26 00:34:36;;;;;;;15.38;5.47;;;6.10;74.40;;;6.28;60.61;101282.19;4991652;28;20065;-78
2021/04/26 00:37:03;;;;;;;11.80;5.00;;;6.10;74.50;;;6.19;60.80;101272.25;4992694;28;20104;-78
2021/04/26 00:39:29;;;;;;;9.20;4.85;;;6.00;74.50;;;6.16;60.48;101267.94;4993487;28;20138;-78
2021/04/26 00:41:56;;;;;;;11.23;5.10;;;6.00;74.50;;;6.12;60.63;101266.53;4993444;28;20096;-78
2021/04/26 00:44:23;;;;;;;12.15;5.63;;;6.00;74.50;;;6.09;60.75;101266.78;4991216;28;20082;-78
2021/04/26 00:46:51;;;;;;;11.95;5.32;;;6.00;74.70;;;6.06;60.44;101270.63;4992594;28;20046;-78
2021/04/26 00:49:21;;;;;;;13.43;5.20;;;5.90;74.60;;;6.04;60.60;101263.66;4992003;28;20065;-78
2021/04/26 00:51:48;;;;;;;9.07;5.00;;;5.80;74.40;;;5.99;60.63;101261.34;4991739;28;20101;-78
2021/04/26 00:54:14;;;;;;;11.90;5.28;;;5.80;74.50;;;5.93;60.70;101255.63;4990909;28;20058;-78
2021/04/26 00:56:41;;;;;;;11.13;5.38;;;5.80;74.40;;;5.95;60.47;101253.63;4992390;28;20078;-78
2021/04/26 00:59:08;;;;;;;12.95;5.57;;;5.80;74.40;;;6.02;60.50;101252.13;4991086;28;20061;-78
2021/04/26 01:01:35;;;;;;;8.38;4.72;;;5.80;74.60;;;6.02;60.49;101250.28;4991082;28;20038;-78
2021/04/26 01:04:03;;;;;;;13.32;6.15;;;5.80;74.90;;;5.98;60.76;101253.41;4990702;28;20080;-78
2021/04/26 01:06:30;;;;;;;12.90;5.15;;;5.80;75.00;;;5.93;60.84;101256.47;4992411;28;20097;-78
2021/04/26 01:08:57;;;;;;;9.98;4.95;;;5.70;75.30;;;5.91;60.92;101257.59;4992676;28;20046;-78
2021/04/26 01:11:42;;;;;;;8.88;4.88;;;5.70;75.10;;;5.90;60.62;101250.47;4991113;28;20048;-78
2021/04/26 01:14:26;;;;;;;12.43;5.28;;;5.70;75.20;;;5.87;60.71;101252.47;4990158;28;20073;-78
2021/04/26 01:17:02;;;;;;;13.63;5.05;;;5.60;75.10;;;5.82;60.77;101249.28;4992085;28;20495;-78
2021/04/26 01:20:06;;;;;;;10.63;5.15;;;5.60;75.10;;;5.81;60.41;101253.00;4991388;28;20182;-78
2021/04/26 01:23:04;;;;;;;12.52;6.35;;;5.50;75.00;;;5.82;60.31;101254.69;4988469;28;20056;-78
2021/04/26 01:25:33;;;;;;;12.27;5.05;;;5.50;75.20;;;5.75;60.98;101256.25;4948984;28;20065;-78
2021/04/26 01:28:22;;;;;;;12.40;5.25;;;5.40;75.40;;;5.73;60.77;101255.53;4990604;28;20050;-78
2021/04/26 01:30:58;;;;;;;14.30;5.65;;;5.50;75.40;;;5.79;60.81;101248.75;4990676;28;20507;-78
2021/04/26 01:33:56;;;;;;;11.82;5.40;;;5.60;75.60;;;5.79;60.61;101246.88;4989201;28;20050;-78
2021/04/26 01:36:44;;;;;;;11.68;5.93;;;5.40;75.60;;;5.75;60.88;101242.75;4991091;28;20050;-78
2021/04/26 01:39:12;;;;;;;13.43;5.20;;;5.40;75.70;;;5.72;60.93;101245.72;4991525;28;20039;-78
2021/04/26 01:41:39;;;;;;;13.00;4.97;;;5.40;75.90;;;5.68;60.37;101242.41;4989737;28;20523;-78
2021/04/26 01:44:06;;;;;;;10.98;5.28;;;5.30;75.80;;;5.67;60.58;101237.16;4989894;28;20112;-78
2021/04/26 01:46:34;;;;;;;9.10;4.95;;;5.30;75.80;;;5.66;60.79;101235.44;4990332;28;20082;-79
2021/04/26 01:49:03;;;;;;;14.40;5.18;;;5.30;75.90;;;5.67;60.67;101246.13;4991914;28;20050;-78
2021/04/26 01:51:31;;;;;;;11.27;5.35;;;5.30;75.90;;;5.65;60.82;101244.53;4991016;28;20120;-78
2021/04/26 01:53:58;;;;;;;11.38;4.90;;;5.30;76.00;;;5.59;60.56;101236.97;4991554;28;20173;-78
2021/04/26 01:56:25;;;;;;;11.93;4.97;;;5.20;75.70;;;5.59;60.92;101243.22;4990266;28;20046;-78
2021/04/26 01:58:58;;;;;;;11.52;5.43;;;5.30;76.00;;;5.58;60.97;101241.53;4992251;28;20050;-78
2021/04/26 02:01:26;;;;;;;11.68;5.07;;;5.20;76.00;;;5.58;61.11;101237.94;4990185;28;20081;-78
2021/04/26 02:04:02;;;;;;;10.68;5.30;;;5.20;76.30;;;5.58;61.16;101236.13;4991336;28;20038;-78
2021/04/26 02:06:40;;;;;;;12.77;5.05;;;5.20;76.40;;;5.55;61.08;101236.38;4989623;28;20461;-78
2021/04/26 02:09:32;;;;;;;17.48;5.70;;;5.20;76.50;;;5.54;61.36;101234.69;4981275;28;20058;-78
2021/04/26 02:12:07;;;;;;;14.23;5.38;;;5.20;76.50;;;5.54;61.23;101239.22;4990040;28;20105;-78
2021/04/26 02:14:39;;;;;;;11.68;5.63;;;5.20;76.60;;;5.52;61.11;101236.66;4990603;28;20034;-78
2021/04/26 02:17:06;;;;;;;13.35;5.68;;;5.10;76.70;;;5.48;61.83;101236.09;4989957;28;20049;-79
2021/04/26 02:19:35;;;;;;;12.25;5.30;;;5.10;76.80;;;5.48;61.44;101241.47;4989800;28;20106;-78
2021/04/26 02:22:03;;;;;;;12.07;5.90;;;5.10;76.80;;;5.45;60.98;101233.63;4989936;28;20093;-78
2021/04/26 02:24:33;;;;;;;10.70;6.10;;;5.10;76.70;;;5.42;61.29;101224.94;4989361;28;20478;-78
2021/04/26 02:27:00;;;;;;;11.88;5.78;;;5.10;76.60;;;5.43;61.16;101224.81;4990168;28;20161;-78
2021/04/26 02:29:28;;;;;;;13.23;5.75;;;5.10;76.60;;;5.43;61.56;101227.53;4990315;28;20050;-78
2021/04/26 02:32:02;;;;;;;10.43;6.13;;;5.10;76.70;;;5.39;61.56;101226.09;4990082;28;20108;-78
2021/04/26 02:34:41;;;;;;;12.70;5.68;;;5.00;76.80;;;5.35;61.41;101219.25;4989640;28;20537;-78
2021/04/26 02:37:15;;;;;;;12.35;5.43;;;5.00;76.90;;;5.36;61.64;101215.53;4990014;28;20447;-78
2021/04/26 02:39:45;;;;;;;14.00;5.97;;;5.00;76.90;;;5.33;61.71;101209.53;4990136;28;20058;-78
2021/04/26 02:42:16;;;;;;;11.45;5.82;;;5.00;76.90;;;5.38;61.54;101208.16;4989649;28;20400;-78
2021/04/26 02:44:48;;;;;;;11.70;5.70;;;5.00;76.90;;;5.39;61.19;101203.63;4990499;28;20411;-78
2021/04/26 02:47:20;;;;;;;15.35;6.03;;;5.00;76.90;;;5.35;61.31;101208.44;4989384;28;20047;-78
2021/04/26 02:50:09;;;;;;;15.40;6.20;;;4.90;77.00;;;5.36;61.57;101202.03;4989716;28;20057;-78
2021/04/26 02:52:47;;;;;;;12.70;6.15;;;5.00;77.10;;;5.32;61.38;101200.59;4989424;28;20058;-78
2021/04/26 02:55:16;;;;;;;22.20;6.45;;;4.90;77.10;;;5.30;61.17;101194.50;4990626;28;20034;-78
2021/04/26 02:57:44;;;;;;;13.45;6.07;;;4.90;77.00;;;5.26;61.64;101193.91;4990062;28;20092;-78
2021/04/26 03:00:15;;;;;;;13.13;5.72;;;4.90;77.10;;;5.25;61.61;101192.19;4993444;28;20050;-78
2021/04/26 03:03:03;;;;;;;16.23;6.90;;;4.80;77.10;;;5.20;61.66;101185.50;4994458;28;20054;-79
2021/04/26 03:05:31;;;;;;;12.73;6.10;;;4.90;77.20;;;5.22;61.36;101180.81;4995568;28;20141;-78
2021/04/26 03:07:59;;;;;;;18.45;6.45;;;4.80;77.00;;;5.18;60.98;101185.63;4993932;28;20050;-78
2021/04/26 03:10:26;;;;;;;12.48;6.00;;;4.80;76.80;;;5.15;61.57;101182.34;4995129;28;20096;-78
2021/04/26 03:12:54;;;;;;;12.35;5.78;;;4.70;77.10;;;5.15;61.41;101179.63;4993354;28;20044;-78
2021/04/26 03:15:26;;;;;;;13.80;5.78;;;4.70;77.20;;;5.11;60.79;101184.44;4993067;28;20058;-78
2021/04/26 03:17:54;;;;;;;14.38;6.47;;;4.70;77.00;;;5.09;61.18;101176.47;4993530;28;20050;-78
2021/04/26 03:20:24;;;;;;;14.60;5.72;;;4.70;77.00;;;5.05;61.12;101175.03;4993354;28;20132;-78
2021/04/26 03:23:02;;;;;;;12.15;5.90;;;4.70;76.90;;;5.02;61.22;101175.28;4992389;28;20419;-78
2021/04/26 03:25:30;;;;;;;11.82;6.07;;;4.70;76.90;;;5.04;60.99;101176.00;4992820;28;20065;-78
2021/04/26 03:27:57;;;;;;;11.18;5.82;;;4.70;76.60;;;5.00;61.13;101166.47;4992967;28;20156;-78
2021/04/26 03:30:28;;;;;;;12.20;5.65;;;4.70;76.90;;;5.00;61.28;101166.47;4993379;28;20084;-78
2021/04/26 03:33:09;;;;;;;11.43;5.95;;;4.60;77.10;;;4.98;61.46;101168.44;4992194;28;20153;-78
2021/04/26 03:35:37;;;;;;;14.20;5.53;;;4.60;77.30;;;4.98;61.28;101162.19;4992359;28;20537;-78
2021/04/26 03:38:09;;;;;;;12.63;6.93;;;4.60;77.20;;;4.90;61.17;101163.72;5009156;28;20042;-78
2021/04/26 03:40:37;;;;;;;13.32;5.97;;;4.50;77.30;;;4.92;61.65;101170.81;4992883;28;20454;-78
2021/04/26 03:43:05;;;;;;;10.57;6.05;;;4.50;77.40;;;4.89;61.38;101164.72;4993003;28;20081;-79
2021/04/26 03:45:55;;;;;;;16.20;5.85;;;4.50;77.40;;;4.88;61.26;101162.16;4993825;28;20530;-78
2021/04/26 03:48:40;;;;;;;12.50;5.68;;;4.50;77.30;;;4.85;61.33;101167.78;4994326;28;20081;-78
2021/04/26 03:51:14;;;;;;;12.38;6.20;;;4.40;77.40;;;4.80;61.35;101164.66;4992821;28;20472;-78
2021/04/26 03:54:00;;;;;;;12.82;5.80;;;4.40;77.40;;;4.81;61.51;101166.34;4994348;28;20114;-78
2021/04/26 03:56:38;;;;;;;11.82;5.78;;;4.40;77.50;;;4.78;61.68;101153.09;4992465;28;20521;-78
2021/04/26 03:59:06;;;;;;;11.60;5.63;;;4.40;77.70;;;4.69;61.99;101163.72;4992588;28;20073;-78
2021/04/26 04:01:36;;;;;;;14.57;6.03;;;4.40;77.80;;;4.72;61.67;101150.94;4992462;28;20176;-78
2021/04/26 04:04:05;;;;;;;12.35;6.15;;;4.30;77.90;;;4.72;61.52;101157.19;4993407;28;20515;-78
2021/04/26 04:06:52;;;;;;;12.00;6.38;;;4.30;77.90;;;4.70;61.76;101149.25;4993423;28;20062;-78
2021/04/26 04:09:43;;;;;;;14.90;6.20;;;4.40;78.10;;;4.71;61.50;101150.09;4989330;28;20523;-79
2021/04/26 04:12:19;;;;;;;11.93;5.70;;;4.30;77.90;;;4.70;61.79;101141.16;4997465;28;20047;-80
2021/04/26 04:14:53;;;;;;;12.18;5.88;;;4.30;77.80;;;4.70;61.78;101142.97;4995833;28;20053;-80
2021/04/26 04:17:20;;;;;;;11.02;5.90;;;4.30;78.00;;;4.66;61.89;101153.19;4993941;28;20047;-79
2021/04/26 04:19:47;;;;;;;12.65;6.07;;;4.20;78.20;;;4.66;61.45;101161.28;4994239;28;20056;-79
2021/04/26 04:22:17;;;;;;;13.15;5.88;;;4.20;78.10;;;4.65;61.96;101162.25;4993187;28;20507;-79
2021/04/26 04:24:50;;;;;;;13.95;5.75;;;4.20;78.10;;;4.63;62.02;101163.38;4992586;28;20077;-79
2021/04/26 04:27:18;;;;;;;12.27;5.97;;;4.20;78.00;;;4.61;62.24;101160.81;4993185;28;20567;-79
2021/04/26 04:29:45;;;;;;;15.98;6.65;;;4.20;78.20;;;4.60;62.13;101161.78;4994546;28;20046;-79
2021/04/26 04:32:30;;;;;;;14.30;6.22;;;4.20;78.20;;;4.62;62.07;101167.06;4993504;28;20065;-78
2021/04/26 04:35:17;;;;;;;15.40;6.90;;;4.20;78.30;;;4.61;61.96;101166.22;4992607;28;20057;-78
2021/04/26 04:38:04;;;;;;;11.10;6.38;;;4.20;78.40;;;4.61;62.23;101165.38;4993915;28;20097;-79
2021/04/26 04:40:50;;;;;;;16.00;7.13;;;4.20;78.50;;;4.60;62.25;101167.19;4994760;28;20419;-79
2021/04/26 04:43:24;;;;;;;13.60;6.53;;;4.20;80.00;;;4.64;62.27;101165.94;4993613;28;20069;-79
2021/04/26 04:45:56;;;;;;;14.07;6.93;;;4.20;80.10;;;4.63;62.47;101174.16;4993172;28;20058;-79
2021/04/26 04:48:45;;;;;;;10.95;6.22;;;4.20;80.30;;;4.63;63.00;101166.94;4992518;28;20054;-79
2021/04/26 04:51:17;;;;;;;10.80;6.43;;;4.20;80.50;;;4.61;62.98;101166.22;4992920;28;20523;-79
2021/04/26 04:53:53;;;;;;;15.55;6.80;;;4.20;80.60;;;4.61;62.68;101166.22;4991586;28;20077;-79
2021/04/26 04:56:22;;;;;;;16.27;6.57;;;4.30;81.00;;;4.63;62.77;101158.84;4991701;28;20539;-79
2021/04/26 04:58:49;;;;;;;13.27;6.93;;;4.20;80.60;;;4.63;63.39;101161.53;4992316;28;20110;-79
2021/04/26 05:01:18;;;;;;;11.38;6.28;;;4.30;80.90;;;4.69;63.26;101157.47;4992177;28;20137;-79
2021/04/26 05:04:04;;;;;;;14.55;6.70;;;4.30;81.10;;;4.70;63.19;101151.06;4994004;28;20081;-78
2021/04/26 05:06:53;;;;;;;12.18;6.35;;;4.30;81.00;;;4.67;63.17;101154.91;4992570;28;20061;-79
2021/04/26 05:09:38;;;;;;;12.93;5.90;;;4.30;81.20;;;4.74;62.99;101148.97;4993534;28;20104;-78
2021/04/26 05:12:42;;;;;;;14.88;6.95;;;4.30;81.20;;;4.77;63.37;101151.41;4989852;28;20137;-79
2021/04/26 05:15:28;;;;;;;13.05;6.68;;;4.40;81.30;;;4.79;63.66;101149.44;4992311;28;20101;-79
2021/04/26 05:17:55;;;;;;;17.75;7.70;;;4.50;81.20;;;4.86;63.70;101150.63;4994527;28;20039;-79
2021/04/26 05:20:23;;;;;;;19.65;7.80;;;4.60;81.10;;;4.92;63.87;101149.25;4994986;28;20149;-79
2021/04/26 05:22:54;;;;;;;14.55;7.78;;;4.70;81.00;;;4.98;63.66;101151.41;4993721;28;20686;-79
2021/04/26 05:25:21;;;;;;;18.00;7.43;;;4.70;81.10;;;5.04;64.09;101159.81;4993434;28;20609;-79
2021/04/26 05:27:51;;;;;;;23.58;8.50;;;4.80;81.20;;;5.13;63.60;101160.03;4993107;28;20160;-79
2021/04/26 05:30:20;;;;;;;16.80;7.57;;;4.90;79.90;;;5.16;63.75;101157.03;4992504;28;20213;-80
2021/04/26 05:32:47;;;;;;;17.15;7.93;;;4.90;80.10;;;5.13;64.15;101150.06;4985358;28;20073;-80
2021/04/26 05:35:34;;;;;;;19.60;8.68;;;5.00;80.30;;;5.13;63.81;101150.06;4981311;28;20128;-80
2021/04/26 05:38:09;;;;;;;18.73;7.47;;;5.10;80.00;;;5.19;64.21;101151.38;4993367;28;20519;-80
2021/04/26 05:40:37;;;;;;;19.65;8.65;;;5.20;79.70;;;5.28;63.81;101156.00;4984294;28;20054;-81
2021/04/26 05:43:07;;;;;;;18.83;9.38;;;5.30;79.40;;;5.32;64.49;101149.31;5009279;28;20071;-80
2021/04/26 05:45:35;;;;;;;18.75;9.07;;;5.40;79.60;;;5.38;64.19;101147.94;4994835;28;20423;-80
2021/04/26 05:48:11;;;;;;;16.55;8.65;;;5.50;79.40;;;5.46;63.98;101140.88;4994979;28;20543;-80
2021/04/26 05:50:39;;;;;;;15.13;8.45;;;5.60;79.00;;;5.54;63.63;101152.81;4994863;28;20061;-80
2021/04/26 05:53:06;;;;;;;21.67;9.82;;;5.70;78.40;;;5.63;63.33;101150.16;4995490;28;20652;-80
2021/04/26 05:55:33;;;;;;;17.95;8.65;;;5.80;78.20;;;5.78;62.98;101152.47;4995217;28;20050;-80
2021/04/26 05:58:00;;;;;;;18.20;8.70;;;5.80;77.80;;;5.82;62.65;101146.66;4995215;28;20065;-79
2021/04/26 06:00:28;;;;;;;18.42;9.40;;;5.90;76.20;;;5.88;62.67;101148.81;4992829;28;20152;-80
2021/04/26 06:02:55;;;;;;;18.65;9.07;;;6.00;75.90;;;5.93;62.59;101134.88;4994195;28;20499;-80
2021/04/26 06:05:22;;;;;;;18.52;8.77;;;6.10;75.70;;;5.95;62.63;101140.16;4994114;28;20107;-80
2021/04/26 06:07:48;;;;;;;24.42;9.57;;;6.20;75.10;;;5.98;62.70;101131.81;4994685;28;20057;-80
2021/04/26 06:10:15;;;;;;;15.15;8.50;;;6.40;74.80;;;6.02;61.86;101139.50;4994060;28;20427;-80
2021/04/26 06:12:42;;;;;;;20.20;8.82;;;6.50;74.30;;;6.08;62.29;101135.38;4993704;28;20105;-80
2021/04/26 06:15:10;;;;;;;17.05;8.98;;;6.60;74.10;;;6.12;62.79;101136.81;4994684;28;20777;-80
2021/04/26 06:17:37;;;;;;;20.70;9.32;;;6.60;74.20;;;6.14;63.03;101140.22;4995661;28;20046;-80
2021/04/26 06:20:06;;;;;;;22.23;9.73;;;6.70;74.40;;;6.22;62.43;101139.50;4994985;28;20073;-80
2021/04/26 06:22:32;;;;;;;21.10;8.77;;;6.70;73.80;;;6.33;61.77;101135.84;4994589;28;20042;-80
2021/04/26 06:24:59;;;;;;;16.85;9.27;;;6.80;73.20;;;6.38;61.52;101141.69;4994812;28;20057;-80
2021/04/26 06:27:26;;;;;;;15.75;8.77;;;6.90;73.20;;;6.43;61.00;101139.38;4994745;28;20082;-79
2021/04/26 06:29:53;;;;;;;20.73;8.98;;;7.00;72.30;;;6.51;60.78;101135.97;4991900;28;20046;-80
2021/04/26 06:32:23;;;;;;;18.77;9.38;;;7.10;71.70;;;6.56;61.26;101134.53;4990389;28;20542;-80
2021/04/26 06:34:51;;;;;;;18.25;9.80;;;7.20;71.70;;;6.62;60.42;101133.97;4989828;28;20081;-80
2021/04/26 06:37:17;;;;;;;17.35;9.02;;;7.30;71.30;;;6.70;60.48;101129.69;4994274;28;20129;-79
2021/04/26 06:39:44;;;;;;;24.35;9.68;;;7.40;70.80;;;6.75;59.82;101130.13;4990739;28;20058;-80
2021/04/26 06:42:11;;;;;;;19.00;9.95;;;7.50;70.30;;;6.83;60.10;101130.22;5000919;28;20137;-80
2021/04/26 06:44:38;;;;;;;14.18;8.45;;;7.60;69.80;;;6.90;59.73;101135.94;5009794;28;20050;-79
2021/04/26 06:47:06;;;;;;;17.98;8.80;;;7.70;70.00;;;6.95;59.99;101130.91;4995476;28;20042;-80
2021/04/26 06:49:34;;;;;;;16.67;8.52;;;7.70;69.90;;;7.00;59.41;101125.94;4986796;28;20074;-79
2021/04/26 06:52:05;;;;;;;21.83;9.13;;;7.80;69.20;;;7.08;58.86;101133.31;4989883;28;20057;-79
2021/04/26 06:54:32;;;;;;;13.93;8.30;;;7.90;70.40;;;7.11;59.58;101127.63;4991963;28;20050;-80
2021/04/26 06:56:59;;;;;;;19.20;9.52;;;7.90;70.50;;;7.17;59.41;101132.44;4994934;28;20050;-80
2021/04/26 06:59:26;;;;;;;18.13;9.13;;;8.00;70.20;;;7.21;59.35;101123.88;4995154;28;20096;-80
2021/04/26 07:01:52;;;;;;;19.45;8.60;;;8.00;70.10;;;7.27;59.24;101122.41;4995351;28;20057;-81
2021/04/26 07:04:19;;;;;;;17.00;8.02;;;8.10;70.00;;;7.32;58.56;101120.13;4992814;28;20061;-81
2021/04/26 07:06:46;;;;;;;16.92;8.45;;;8.20;69.10;;;7.37;57.89;101120.53;4991894;28;20066;-81
2021/04/26 07:09:13;;;;;;;15.75;9.00;;;8.30;68.70;;;7.43;57.75;101130.78;4993360;28;20452;-80
2021/04/26 07:11:41;;;;;;;15.50;8.43;;;8.30;68.20;;;7.49;57.51;101117.66;4993397;28;20050;-80
2021/04/26 07:14:08;;;;;;;16.73;7.70;;;8.30;68.60;;;7.55;58.30;101111.63;4992448;28;20121;-80
2021/04/26 07:16:34;;;;;;;14.77;8.02;;;8.40;69.20;;;7.63;59.25;101112.59;4990868;28;20054;-81
2021/04/26 07:19:01;;;;;;;15.63;8.00;;;8.50;69.50;;;7.67;57.51;101118.53;4992879;28;20050;-80
2021/04/26 07:21:28;;;;;;;16.92;7.90;;;8.60;66.90;;;7.74;57.05;101118.81;4993959;28;20100;-80
2021/04/26 07:23:55;;;;;;;15.25;7.70;;;8.70;67.60;;;7.78;57.20;101112.91;4992001;28;20124;-80
2021/04/26 07:26:23;;;;;;;20.02;7.45;;;8.70;67.30;;;7.86;57.39;101108.59;4992694;28;20051;-80
2021/04/26 07:28:50;;;;;;;13.38;6.43;;;8.80;66.80;;;7.91;57.00;101104.41;4993771;28;20042;-80
2021/04/26 07:31:16;;;;;;;15.82;7.03;;;8.90;67.00;;;7.95;56.01;101097.69;4995750;28;20153;-80
2021/04/26 07:33:43;;;;;;;14.75;7.30;;;8.90;64.80;;;8.01;54.59;101096.22;4995054;28;20101;-80
2021/04/26 07:36:10;;;;;;;13.73;7.35;;;9.00;64.10;;;8.08;56.41;101091.91;4997691;28;20917;-80
2021/04/26 07:38:37;;;;;;;12.43;6.18;;;9.10;65.60;;;8.14;55.25;101095.84;4994888;28;20046;-80
2021/04/26 07:41:04;;;;;;;9.70;6.13;;;9.20;63.60;;;8.16;54.44;101089.25;4993664;28;20055;-80
2021/04/26 07:43:31;;;;;;;11.55;5.78;;;9.20;62.00;;;8.20;53.99;101087.94;4994973;28;20046;-80
2021/04/26 07:45:58;;;;;;;12.43;6.05;;;9.20;62.00;;;8.28;54.14;101084.47;4996127;28;20050;-80
2021/04/26 07:48:25;;;;;;;10.48;5.82;;;9.40;62.50;;;8.36;54.58;101089.13;4994335;28;20153;-80
2021/04/26 07:50:52;;;;;;;12.75;5.40;;;9.50;62.00;;;8.39;52.20;101083.38;4995473;28;20112;-80
2021/04/26 07:53:25;;;;;;;13.63;5.00;;;9.50;59.70;;;8.48;51.88;101079.75;4998406;28;20085;-80
2021/04/26 07:55:52;;;;;;;10.02;4.75;;;9.60;59.00;;;8.53;52.30;101077.44;4997063;28;20046;-80
2021/04/26 07:58:19;;;;;;;10.43;4.30;;;9.70;59.30;;;8.66;52.83;101081.56;4998880;28;20121;-80
2021/04/26 08:00:47;;;;;;;14.23;4.82;;;9.80;59.60;;;8.71;50.81;101080.09;4997224;28;20370;-80
2021/04/26 08:03:15;;;;;;;11.88;4.32;;;9.90;57.90;;;8.77;50.82;101081.31;4997131;28;20057;-81
2021/04/26 08:05:42;;;;;;;9.25;4.35;;;10.00;57.80;;;8.93;52.74;101075.13;5014512;28;20112;-80
2021/04/26 08:08:09;;;;;;;9.93;3.78;;;10.10;60.10;;;8.98;50.44;101072.81;5017797;28;20050;-80
2021/04/26 08:10:36;;;;;;;11.50;3.72;;;10.20;57.10;;;9.02;49.68;101068.75;5016293;28;20105;-80
2021/04/26 08:13:03;;;;;;;7.22;3.58;;;10.30;56.60;;;9.07;49.56;101079.16;4998283;28;20061;-80
2021/04/26 08:15:30;;;;;;;7.78;3.40;;;10.40;55.10;;;9.11;49.01;101069.66;5004837;28;20046;-80
2021/04/26 08:17:58;;;;;;;15.38;4.10;;;10.50;55.20;;;9.14;49.42;101070.19;5015546;28;20037;-80
2021/04/26 08:20:25;;;;;;;5.55;3.22;;;10.50;54.50;;;9.15;47.22;101065.59;5015213;28;20054;-80
2021/04/26 08:22:52;;;;;;;6.50;3.00;;;10.50;52.20;;;9.23;46.92;101062.91;4997012;28;20046;-81
2021/04/26 08:25:19;;;;;;;7.82;2.80;;;10.60;52.80;;;9.30;47.70;101060.41;4999748;28;20526;-81
2021/04/26 08:27:47;;;;;;;6.68;2.90;;;10.70;53.20;;;9.32;46.27;101064.66;5017641;28;20049;-81
2021/04/26 08:30:15;;;;;;;7.18;2.50;;;10.70;52.90;;;9.41;46.47;101072.88;5016802;28;20046;-82
2021/04/26 08:32:42;;;;;;;9.55;2.50;;;10.80;53.00;;;9.52;44.80;101064.41;4997422;28;20073;-81
2021/04/26 08:35:11;;;;;;;6.05;2.30;;;10.90;50.70;;;9.56;45.33;101063.06;4996651;28;20072;-82
2021/04/26 08:37:37;;;;;;;6.68;2.40;;;10.90;50.10;;;9.62;42.42;101059.69;4999526;28;20058;-82
2021/04/26 08:40:06;;;;;;;8.77;2.75;;;11.00;49.70;;;9.61;42.37;101066.13;4997452;28;20050;-81
2021/04/26 08:42:33;;;;;;;5.65;2.35;;;11.00;47.90;;;9.69;43.83;101062.59;4996661;28;20054;-81
2021/04/26 08:45:00;;;;;;;5.88;2.53;;;11.10;49.50;;;9.69;43.33;101059.88;4995614;28;20046;-81
2021/04/26 08:47:28;;;;;;;5.18;2.22;;;11.10;49.80;;;9.70;43.50;101059.72;5004692;28;20116;-81
2021/04/26 08:49:56;;;;;;;8.65;2.95;;;11.10;49.30;;;9.68;41.38;101061.75;4998108;28;20052;-81
2021/04/26 08:52:24;;;;;;;6.00;2.63;;;11.10;46.80;;;9.72;42.88;101049.53;4993049;28;20046;-81
2021/04/26 08:54:51;;;;;;;5.57;2.50;;;11.10;48.90;;;9.69;41.61;101046.28;4995712;28;20053;-81
2021/04/26 08:57:18;;;;;;;4.43;2.20;;;11.20;46.70;;;9.73;43.58;101048.53;4995890;28;20050;-81
2021/04/26 08:59:45;;;;;;;5.38;2.85;;;11.10;48.50;;;9.86;44.37;101047.19;4997261;28;20058;-81
2021/04/26 09:02:13;;;;;;;7.15;2.42;;;11.20;49.40;;;9.97;43.39;101044.13;4998868;28;20137;-81
2021/04/26 09:04:49;;;;;;;7.20;2.75;;;11.30;49.30;;;10.01;42.68;101040.06;4998661;28;20420;-82
2021/04/26 09:07:17;;;;;;;6.32;2.33;;;11.40;49.80;;;10.12;43.85;101042.44;4996568;28;20129;-82
2021/04/26 09:09:47;;;;;;;5.70;2.60;;;11.50;52.00;;;10.20;43.53;101038.03;4997474;28;20050;-83
2021/04/26 09:12:24;;;;;;;8.23;2.67;;;11.60;51.50;;;10.28;42.55;101038.91;4999148;28;20054;-80
2021/04/26 09:14:52;;;;;;;4.82;2.20;;;11.70;50.20;;;10.21;42.71;101034.31;4992100;28;20102;-81
2021/04/26 09:17:34;;;;;;;8.80;2.97;;;11.70;49.90;;;10.25;42.33;101041.97;4998668;28;20050;-80
2021/04/26 09:20:20;;;;;;;;;;;11.70;50.10;;;10.26;43.59;101034.63;4994649;28;20160;-81
2021/04/26 09:22:50;;;;;;;8.88;2.65;;;11.70;49.60;;;10.32;41.10;101028.56;4983591;28;19929;-81
2021/04/26 09:25:28;;;;;;;5.95;3.20;;;11.80;49.10;;;10.35;41.18;101029.06;5000889;28;20053;-81
2021/04/26 09:27:59;;;;;;;5.05;2.60;;;11.80;48.40;;;10.25;41.33;101020.19;5001590;28;20049;-81
2021/04/26 09:30:47;;;;;;;6.03;2.92;;;11.80;48.30;;;10.21;41.19;101018.00;5001538;28;20050;-81
2021/04/26 09:33:27;;;;;;;7.65;3.05;;;11.70;46.10;;;10.31;41.36;101018.69;5000036;28;20120;-81
2021/04/26 09:36:12;;;;;;;6.35;2.58;;;11.70;49.10;;;10.28;41.52;101013.56;5000934;28;20061;-81
2021/04/26 09:38:40;;;;;;;7.78;2.60;;;11.70;47.80;;;10.25;39.83;101005.75;5000937;28;20042;-81
2021/04/26 09:41:21;;;;;;;6.43;3.05;;;11.70;46.10;;;10.22;39.48;101014.25;5000111;28;20097;-81
2021/04/26 09:43:52;;;;;;;5.43;2.50;;;11.60;45.90;;;10.20;39.31;101006.25;4999700;28;20050;-81
2021/04/26 09:46:22;;;;;;;6.07;2.47;;;11.50;45.10;;;10.17;38.95;101002.00;5000760;28;20408;-81
2021/04/26 09:48:49;;;;;;;5.95;2.92;;;11.50;45.10;;;10.18;39.42;101001.00;5000830;28;20054;-81
2021/04/26 09:51:22;;;;;;;5.82;2.78;;;11.40;45.70;;;10.24;40.85;100993.16;5001076;28;20132;-81
2021/04/26 09:53:54;;;;;;;6.30;2.42;;;11.50;47.50;;;10.33;41.85;100989.44;5001164;28;20118;-80
2021/04/26 09:56:25;;;;;;;9.95;2.97;;;11.60;48.90;;;10.36;41.24;100994.56;5007046;28;20049;-80
2021/04/26 09:58:54;;;;;;;5.55;2.80;;;11.70;48.00;;;10.36;40.67;100983.69;4974536;28;20050;-80
2021/04/26 10:01:21;;;;;;;6.22;2.70;;;11.70;48.00;;;10.52;42.79;100986.34;4974726;28;20059;-80
2021/04/26 10:03:49;;;;;;;6.47;2.88;;;11.80;50.30;;;10.59;42.27;100981.09;4970808;28;20499;-80
2021/04/26 10:06:18;;;;;;;7.95;2.80;;;11.90;48.30;;;10.53;40.85;100990.78;4970712;28;20061;-80
2021/04/26 10:08:45;;;;;;;8.73;3.25;;;11.90;46.60;;;10.53;40.31;100973.63;4987069;28;20069;-80
2021/04/26 10:11:12;;;;;;;9.90;3.15;;;11.90;46.30;;;10.50;39.29;100980.25;4972673;28;20046;-81
2021/04/26 10:13:40;;;;;;;7.00;2.83;;;11.90;47.30;;;10.49;38.80;100964.94;4982556;28;20470;-80
2021/04/26 10:16:11;;;;;;;7.22;2.90;;;11.80;43.50;;;10.61;43.11;100962.72;4991986;28;20046;-82
2021/04/26 10:18:40;;;;;;;8.32;2.58;;;11.90;47.30;;;10.63;40.17;100971.53;4990810;28;20038;-82
2021/04/26 10:21:29;;;;;;;5.78;2.50;;;12.00;46.40;;;10.56;39.41;100949.59;4986064;28;20503;-82
2021/04/26 10:23:56;;;;;;;7.68;2.58;;;11.90;44.80;;;10.54;38.71;100954.38;4990055;28;20079;-82
2021/04/26 10:26:48;;;;;;;8.95;2.75;;;11.90;44.00;;;10.61;38.83;100954.53;4991352;28;20124;-81
2021/04/26 10:29:25;;;;;;;9.70;2.72;;;12.00;44.60;;;10.55;37.99;100952.53;4991872;28;20333;-80
2021/04/26 10:32:10;;;;;;;9.07;2.88;;;11.90;42.20;;;10.53;36.84;100947.25;4986505;28;20050;-83
2021/04/26 10:35:12;;;;;;;7.97;3.03;;;11.90;41.60;;;10.58;37.87;100949.44;4986466;28;20046;-81